sensor_id;sensor_type;location;lat;lon;timestamp;temperature;humidity
31979;DHT22;18502;43.574;1.276;2024-01-15T00:00:17;9.50;99.90
31979;DHT22;18502;43.574;1.276;2024-01-15T00:02:42;9.50;99.90
31979;DHT22;18502;43.574;1.276;2024-01-15T00:05:08;9.50;99.90
31979;DHT22;18502;43.574;1.276;2024-01-15T00:07:34;9.50;99.90
31979;DHT22;18502;43.574;1.276;2024-01-15T00:10:00;9.50;99.90
31979;DHT22;18502;43.574;1.276;2024-01-15T00:12:26;9.50;99.90
31979;DHT22;18502;43.574;1.276;2024-01-15T00:14:53;9.50;99.90
31979;DHT22;18502;43.574;1.276;2024-01-15T00:17:18;9.40;99.90
31979;DHT22;18502;43.574;1.276;2024-01-15T00:19:44;9.40;99.90
31979;DHT22;18502;43.574;1.276;2024-01-15T00:22:09;9.40;99.90
31979;DHT22;18502;43.574;1.276;2024-01-15T00:24:35;9.30;99.90
31979;DHT22;18502;43.574;1.276;2024-01-15T00:27:01;9.20;99.90
31979;DHT22;18502;43.574;1.276;2024-01-15T00:29:26;9.10;99.90
31979;DHT22;18502;43.574;1.276;2024-01-15T00:31:52;9.00;99.90
31979;DHT22;18502;43.574;1.276;2024-01-15T00:34:18;9.10;99.90
31979;DHT22;18502;43.574;1.276;2024-01-15T00:36:43;9.20;99.90
31979;DHT22;18502;43.574;1.276;2024-01-15T00:39:09;9.30;99.90
31979;DHT22;18502;43.574;1.276;2024-01-15T00:41:36;9.30;99.90
31979;DHT22;18502;43.574;1.276;2024-01-15T00:44:01;9.30;99.90
31979;DHT22;18502;43.574;1.276;2024-01-15T00:46:28;9.40;99.90
31979;DHT22;18502;43.574;1.276;2024-01-15T00:48:54;9.40;99.90
31979;DHT22;18502;43.574;1.276;2024-01-15T00:51:20;9.40;99.90
31979;DHT22;18502;43.574;1.276;2024-01-15T00:53:45;9.40;99.90
31979;DHT22;18502;43.574;1.276;2024-01-15T00:56:11;9.40;99.90
31979;DHT22;18502;43.574;1.276;2024-01-15T00:58:36;9.40;99.90
31979;DHT22;18502;43.574;1.276;2024-01-15T01:01:02;9.30;99.90
31979;DHT22;18502;43.574;1.276;2024-01-15T01:03:28;9.30;99.90
31979;DHT22;18502;43.574;1.276;2024-01-15T01:05:53;9.30;99.90
31979;DHT22;18502;43.574;1.276;2024-01-15T01:08:19;9.30;99.90
31979;DHT22;18502;43.574;1.276;2024-01-15T01:10:45;9.30;99.90
31979;DHT22;18502;43.574;1.276;2024-01-15T01:13:10;9.30;99.90
31979;DHT22;18502;43.574;1.276;2024-01-15T01:15:36;9.30;99.90
31979;DHT22;18502;43.574;1.276;2024-01-15T01:18:02;9.20;99.90
31979;DHT22;18502;43.574;1.276;2024-01-15T01:20:28;9.20;99.90
31979;DHT22;18502;43.574;1.276;2024-01-15T01:22:54;9.20;99.90
31979;DHT22;18502;43.574;1.276;2024-01-15T01:25:19;9.20;99.90
31979;DHT22;18502;43.574;1.276;2024-01-15T01:27:45;9.30;99.90
31979;DHT22;18502;43.574;1.276;2024-01-15T01:30:11;9.30;99.90
31979;DHT22;18502;43.574;1.276;2024-01-15T01:32:36;9.30;99.90
31979;DHT22;18502;43.574;1.276;2024-01-15T01:35:02;9.20;99.90
31979;DHT22;18502;43.574;1.276;2024-01-15T01:37:28;9.10;99.90
31979;DHT22;18502;43.574;1.276;2024-01-15T01:39:54;9.10;99.90
31979;DHT22;18502;43.574;1.276;2024-01-15T01:42:19;9.00;99.90
31979;DHT22;18502;43.574;1.276;2024-01-15T01:44:45;9.00;99.90
31979;DHT22;18502;43.574;1.276;2024-01-15T01:47:12;9.10;99.90
31979;DHT22;18502;43.574;1.276;2024-01-15T01:49:39;9.10;99.90
31979;DHT22;18502;43.574;1.276;2024-01-15T01:52:06;9.10;99.90
31979;DHT22;18502;43.574;1.276;2024-01-15T01:54:35;9.00;99.90
31979;DHT22;18502;43.574;1.276;2024-01-15T01:57:03;9.00;99.90
31979;DHT22;18502;43.574;1.276;2024-01-15T01:59:30;9.00;99.90
31979;DHT22;18502;43.574;1.276;2024-01-15T02:01:57;9.00;99.90
31979;DHT22;18502;43.574;1.276;2024-01-15T02:04:24;9.00;99.90
31979;DHT22;18502;43.574;1.276;2024-01-15T02:06:51;9.00;99.90
31979;DHT22;18502;43.574;1.276;2024-01-15T02:09:17;9.00;99.90
31979;DHT22;18502;43.574;1.276;2024-01-15T02:11:45;9.00;99.90
31979;DHT22;18502;43.574;1.276;2024-01-15T02:14:11;9.00;99.90
31979;DHT22;18502;43.574;1.276;2024-01-15T02:16:37;9.00;99.90
31979;DHT22;18502;43.574;1.276;2024-01-15T02:19:03;9.00;99.90
31979;DHT22;18502;43.574;1.276;2024-01-15T02:21:28;9.00;99.90
31979;DHT22;18502;43.574;1.276;2024-01-15T02:23:54;9.00;99.90
31979;DHT22;18502;43.574;1.276;2024-01-15T02:26:21;9.10;99.90
31979;DHT22;18502;43.574;1.276;2024-01-15T02:28:47;9.00;99.90
31979;DHT22;18502;43.574;1.276;2024-01-15T02:31:13;8.90;99.90
31979;DHT22;18502;43.574;1.276;2024-01-15T02:33:39;8.80;99.90
31979;DHT22;18502;43.574;1.276;2024-01-15T02:36:05;8.70;99.90
31979;DHT22;18502;43.574;1.276;2024-01-15T02:38:31;8.70;99.90
31979;DHT22;18502;43.574;1.276;2024-01-15T02:40:57;8.70;99.90
31979;DHT22;18502;43.574;1.276;2024-01-15T02:43:22;8.70;99.90
31979;DHT22;18502;43.574;1.276;2024-01-15T02:45:48;8.70;99.90
31979;DHT22;18502;43.574;1.276;2024-01-15T02:48:13;8.80;99.90
31979;DHT22;18502;43.574;1.276;2024-01-15T02:50:39;8.90;99.90
31979;DHT22;18502;43.574;1.276;2024-01-15T02:53:05;8.90;99.90
31979;DHT22;18502;43.574;1.276;2024-01-15T02:55:30;9.00;99.90
31979;DHT22;18502;43.574;1.276;2024-01-15T02:57:56;9.00;99.90
31979;DHT22;18502;43.574;1.276;2024-01-15T03:00:22;9.10;99.90
31979;DHT22;18502;43.574;1.276;2024-01-15T03:02:49;9.20;99.90
31979;DHT22;18502;43.574;1.276;2024-01-15T03:05:15;9.20;99.90
31979;DHT22;18502;43.574;1.276;2024-01-15T03:07:41;9.20;99.90
31979;DHT22;18502;43.574;1.276;2024-01-15T03:10:08;9.30;99.90
31979;DHT22;18502;43.574;1.276;2024-01-15T03:12:33;9.30;99.90
31979;DHT22;18502;43.574;1.276;2024-01-15T03:14:59;9.30;99.90
31979;DHT22;18502;43.574;1.276;2024-01-15T03:17:25;9.40;99.90
31979;DHT22;18502;43.574;1.276;2024-01-15T03:19:50;9.40;99.90
31979;DHT22;18502;43.574;1.276;2024-01-15T03:22:17;9.40;99.90
31979;DHT22;18502;43.574;1.276;2024-01-15T03:24:43;9.50;99.90
31979;DHT22;18502;43.574;1.276;2024-01-15T03:27:09;9.50;99.90
31979;DHT22;18502;43.574;1.276;2024-01-15T03:29:34;9.50;99.90
31979;DHT22;18502;43.574;1.276;2024-01-15T03:32:00;9.50;99.90
31979;DHT22;18502;43.574;1.276;2024-01-15T03:34:26;9.40;99.90
31979;DHT22;18502;43.574;1.276;2024-01-15T03:36:51;9.40;99.90
31979;DHT22;18502;43.574;1.276;2024-01-15T03:39:17;9.40;99.90
31979;DHT22;18502;43.574;1.276;2024-01-15T03:41:42;9.20;99.90
31979;DHT22;18502;43.574;1.276;2024-01-15T03:44:08;9.10;99.90
31979;DHT22;18502;43.574;1.276;2024-01-15T03:46:34;9.00;99.90
31979;DHT22;18502;43.574;1.276;2024-01-15T03:48:59;9.00;99.90
31979;DHT22;18502;43.574;1.276;2024-01-15T03:51:25;9.00;99.90
31979;DHT22;18502;43.574;1.276;2024-01-15T03:53:50;9.00;99.90
31979;DHT22;18502;43.574;1.276;2024-01-15T03:56:16;9.00;99.90
31979;DHT22;18502;43.574;1.276;2024-01-15T03:58:42;9.00;99.90
31979;DHT22;18502;43.574;1.276;2024-01-15T04:01:09;9.10;99.90
31979;DHT22;18502;43.574;1.276;2024-01-15T04:03:35;9.10;99.90
31979;DHT22;18502;43.574;1.276;2024-01-15T04:06:01;9.10;99.90
31979;DHT22;18502;43.574;1.276;2024-01-15T04:08:27;9.10;99.90
31979;DHT22;18502;43.574;1.276;2024-01-15T04:10:53;9.10;99.90
31979;DHT22;18502;43.574;1.276;2024-01-15T04:13:18;9.10;99.90
31979;DHT22;18502;43.574;1.276;2024-01-15T04:15:44;9.10;99.90
31979;DHT22;18502;43.574;1.276;2024-01-15T04:18:09;9.10;99.90
31979;DHT22;18502;43.574;1.276;2024-01-15T04:20:35;9.10;99.90
31979;DHT22;18502;43.574;1.276;2024-01-15T04:23:01;9.10;99.90
31979;DHT22;18502;43.574;1.276;2024-01-15T04:25:27;9.10;99.90
31979;DHT22;18502;43.574;1.276;2024-01-15T04:27:52;9.10;99.90
31979;DHT22;18502;43.574;1.276;2024-01-15T04:30:18;9.10;99.90
31979;DHT22;18502;43.574;1.276;2024-01-15T04:32:43;9.00;99.90
31979;DHT22;18502;43.574;1.276;2024-01-15T04:35:09;9.10;99.90
31979;DHT22;18502;43.574;1.276;2024-01-15T04:37:35;9.10;99.90
31979;DHT22;18502;43.574;1.276;2024-01-15T04:40:00;9.10;99.90
31979;DHT22;18502;43.574;1.276;2024-01-15T04:42:26;9.10;99.90
31979;DHT22;18502;43.574;1.276;2024-01-15T04:44:51;9.00;99.90
31979;DHT22;18502;43.574;1.276;2024-01-15T04:47:17;9.00;99.90
31979;DHT22;18502;43.574;1.276;2024-01-15T04:49:43;9.00;99.90
31979;DHT22;18502;43.574;1.276;2024-01-15T04:52:08;9.00;99.90
31979;DHT22;18502;43.574;1.276;2024-01-15T04:54:36;9.00;99.90
31979;DHT22;18502;43.574;1.276;2024-01-15T04:57:02;9.00;99.90
31979;DHT22;18502;43.574;1.276;2024-01-15T04:59:28;9.00;99.90
31979;DHT22;18502;43.574;1.276;2024-01-15T05:01:54;9.00;99.90
31979;DHT22;18502;43.574;1.276;2024-01-15T05:04:20;8.90;99.90
31979;DHT22;18502;43.574;1.276;2024-01-15T05:06:45;8.90;99.90
31979;DHT22;18502;43.574;1.276;2024-01-15T05:09:11;8.90;99.90
31979;DHT22;18502;43.574;1.276;2024-01-15T05:11:39;8.90;99.90
31979;DHT22;18502;43.574;1.276;2024-01-15T05:14:04;8.90;99.90
31979;DHT22;18502;43.574;1.276;2024-01-15T05:16:30;8.90;99.90
31979;DHT22;18502;43.574;1.276;2024-01-15T05:18:55;8.90;99.90
31979;DHT22;18502;43.574;1.276;2024-01-15T05:21:21;8.90;99.90
31979;DHT22;18502;43.574;1.276;2024-01-15T05:23:47;8.90;99.90
31979;DHT22;18502;43.574;1.276;2024-01-15T05:26:12;8.90;99.90
31979;DHT22;18502;43.574;1.276;2024-01-15T05:28:40;8.90;99.90
31979;DHT22;18502;43.574;1.276;2024-01-15T05:31:06;8.90;99.90
31979;DHT22;18502;43.574;1.276;2024-01-15T05:33:31;8.80;99.90
31979;DHT22;18502;43.574;1.276;2024-01-15T05:35:57;8.90;99.90
31979;DHT22;18502;43.574;1.276;2024-01-15T05:38:24;8.90;99.90
31979;DHT22;18502;43.574;1.276;2024-01-15T05:40:49;8.90;99.90
31979;DHT22;18502;43.574;1.276;2024-01-15T05:43:15;8.90;99.90
31979;DHT22;18502;43.574;1.276;2024-01-15T05:45:43;8.90;99.90
31979;DHT22;18502;43.574;1.276;2024-01-15T05:48:10;8.90;99.90
31979;DHT22;18502;43.574;1.276;2024-01-15T05:50:35;8.90;99.90
31979;DHT22;18502;43.574;1.276;2024-01-15T05:53:01;8.90;99.90
31979;DHT22;18502;43.574;1.276;2024-01-15T05:55:28;8.90;99.90
31979;DHT22;18502;43.574;1.276;2024-01-15T05:57:53;8.90;99.90
31979;DHT22;18502;43.574;1.276;2024-01-15T06:00:19;9.00;99.90
31979;DHT22;18502;43.574;1.276;2024-01-15T06:02:44;9.00;99.90
31979;DHT22;18502;43.574;1.276;2024-01-15T06:05:10;9.00;99.90
31979;DHT22;18502;43.574;1.276;2024-01-15T06:07:36;9.00;99.90
31979;DHT22;18502;43.574;1.276;2024-01-15T06:10:02;9.00;99.90
31979;DHT22;18502;43.574;1.276;2024-01-15T06:12:28;9.10;99.90
31979;DHT22;18502;43.574;1.276;2024-01-15T06:14:54;9.10;99.90
31979;DHT22;18502;43.574;1.276;2024-01-15T06:17:20;9.10;99.90
31979;DHT22;18502;43.574;1.276;2024-01-15T06:19:45;9.10;99.90
31979;DHT22;18502;43.574;1.276;2024-01-15T06:22:11;9.10;99.90
31979;DHT22;18502;43.574;1.276;2024-01-15T06:24:37;9.10;99.90
31979;DHT22;18502;43.574;1.276;2024-01-15T06:27:02;9.10;99.90
31979;DHT22;18502;43.574;1.276;2024-01-15T06:29:28;9.10;99.90
31979;DHT22;18502;43.574;1.276;2024-01-15T06:31:54;9.10;99.90
31979;DHT22;18502;43.574;1.276;2024-01-15T06:34:19;9.10;99.90
31979;DHT22;18502;43.574;1.276;2024-01-15T06:36:45;9.10;99.90
31979;DHT22;18502;43.574;1.276;2024-01-15T06:39:11;9.20;99.90
31979;DHT22;18502;43.574;1.276;2024-01-15T06:41:37;9.20;99.90
31979;DHT22;18502;43.574;1.276;2024-01-15T06:44:10;9.20;99.90
31979;DHT22;18502;43.574;1.276;2024-01-15T06:46:36;9.20;99.90
31979;DHT22;18502;43.574;1.276;2024-01-15T06:49:02;9.10;99.90
31979;DHT22;18502;43.574;1.276;2024-01-15T06:51:29;9.10;99.90
31979;DHT22;18502;43.574;1.276;2024-01-15T06:53:54;9.10;99.90
31979;DHT22;18502;43.574;1.276;2024-01-15T06:56:20;9.10;99.90
31979;DHT22;18502;43.574;1.276;2024-01-15T06:58:46;9.10;99.90
31979;DHT22;18502;43.574;1.276;2024-01-15T07:01:11;9.20;99.90
31979;DHT22;18502;43.574;1.276;2024-01-15T07:03:37;9.10;99.90
31979;DHT22;18502;43.574;1.276;2024-01-15T07:06:03;9.10;99.90
31979;DHT22;18502;43.574;1.276;2024-01-15T07:08:29;9.00;99.90
31979;DHT22;18502;43.574;1.276;2024-01-15T07:10:55;9.10;99.90
31979;DHT22;18502;43.574;1.276;2024-01-15T07:13:21;9.10;99.90
31979;DHT22;18502;43.574;1.276;2024-01-15T07:15:46;9.10;99.90
31979;DHT22;18502;43.574;1.276;2024-01-15T07:18:12;9.00;99.90
31979;DHT22;18502;43.574;1.276;2024-01-15T07:20:38;9.10;99.90
31979;DHT22;18502;43.574;1.276;2024-01-15T07:23:03;9.10;99.90
31979;DHT22;18502;43.574;1.276;2024-01-15T07:25:29;9.10;99.90
31979;DHT22;18502;43.574;1.276;2024-01-15T07:27:55;9.10;99.90
31979;DHT22;18502;43.574;1.276;2024-01-15T07:30:21;9.10;99.90
31979;DHT22;18502;43.574;1.276;2024-01-15T07:32:47;9.00;99.90
31979;DHT22;18502;43.574;1.276;2024-01-15T07:35:14;9.10;99.90
31979;DHT22;18502;43.574;1.276;2024-01-15T07:37:41;9.10;99.90
31979;DHT22;18502;43.574;1.276;2024-01-15T07:40:07;9.10;99.90
31979;DHT22;18502;43.574;1.276;2024-01-15T07:42:34;9.10;99.90
31979;DHT22;18502;43.574;1.276;2024-01-15T07:45:00;9.20;99.90
31979;DHT22;18502;43.574;1.276;2024-01-15T07:47:26;9.20;99.90
31979;DHT22;18502;43.574;1.276;2024-01-15T07:49:53;9.20;99.90
31979;DHT22;18502;43.574;1.276;2024-01-15T07:52:19;9.20;99.90
31979;DHT22;18502;43.574;1.276;2024-01-15T07:54:44;9.20;99.90
31979;DHT22;18502;43.574;1.276;2024-01-15T07:57:10;9.20;99.90
31979;DHT22;18502;43.574;1.276;2024-01-15T07:59:36;9.20;99.90
31979;DHT22;18502;43.574;1.276;2024-01-15T08:02:02;9.10;99.90
31979;DHT22;18502;43.574;1.276;2024-01-15T08:04:28;9.10;99.90
31979;DHT22;18502;43.574;1.276;2024-01-15T08:06:53;9.00;99.90
31979;DHT22;18502;43.574;1.276;2024-01-15T08:09:19;9.10;99.90
31979;DHT22;18502;43.574;1.276;2024-01-15T08:11:44;9.10;99.90
31979;DHT22;18502;43.574;1.276;2024-01-15T08:14:11;9.10;99.90
31979;DHT22;18502;43.574;1.276;2024-01-15T08:16:37;9.10;99.90
31979;DHT22;18502;43.574;1.276;2024-01-15T08:19:03;9.10;99.90
31979;DHT22;18502;43.574;1.276;2024-01-15T08:21:29;9.20;99.90
31979;DHT22;18502;43.574;1.276;2024-01-15T08:24:01;9.20;99.90
31979;DHT22;18502;43.574;1.276;2024-01-15T08:26:28;9.30;99.90
31979;DHT22;18502;43.574;1.276;2024-01-15T08:28:54;9.40;99.90
31979;DHT22;18502;43.574;1.276;2024-01-15T08:31:20;9.40;99.90
31979;DHT22;18502;43.574;1.276;2024-01-15T08:33:46;9.40;99.90
31979;DHT22;18502;43.574;1.276;2024-01-15T08:36:12;9.50;99.90
31979;DHT22;18502;43.574;1.276;2024-01-15T08:38:37;9.60;99.90
31979;DHT22;18502;43.574;1.276;2024-01-15T08:41:04;9.60;99.90
31979;DHT22;18502;43.574;1.276;2024-01-15T08:43:29;9.70;99.90
31979;DHT22;18502;43.574;1.276;2024-01-15T08:45:56;9.70;99.90
31979;DHT22;18502;43.574;1.276;2024-01-15T08:48:22;9.80;99.90
31979;DHT22;18502;43.574;1.276;2024-01-15T08:50:48;9.70;99.90
31979;DHT22;18502;43.574;1.276;2024-01-15T08:53:14;9.80;99.90
31979;DHT22;18502;43.574;1.276;2024-01-15T08:55:40;10.00;99.90
31979;DHT22;18502;43.574;1.276;2024-01-15T08:58:08;10.20;99.90
31979;DHT22;18502;43.574;1.276;2024-01-15T09:00:33;10.50;99.90
31979;DHT22;18502;43.574;1.276;2024-01-15T09:02:59;10.70;99.90
31979;DHT22;18502;43.574;1.276;2024-01-15T09:05:25;10.90;99.90
31979;DHT22;18502;43.574;1.276;2024-01-15T09:07:50;11.10;99.90
31979;DHT22;18502;43.574;1.276;2024-01-15T09:10:18;11.20;99.90
31979;DHT22;18502;43.574;1.276;2024-01-15T09:12:43;11.00;99.90
31979;DHT22;18502;43.574;1.276;2024-01-15T09:15:09;11.00;99.90
31979;DHT22;18502;43.574;1.276;2024-01-15T09:17:35;10.60;99.90
31979;DHT22;18502;43.574;1.276;2024-01-15T09:20:01;10.70;99.90
31979;DHT22;18502;43.574;1.276;2024-01-15T09:22:26;10.40;99.90
31979;DHT22;18502;43.574;1.276;2024-01-15T09:24:52;10.50;99.90
31979;DHT22;18502;43.574;1.276;2024-01-15T09:27:18;10.50;99.90
31979;DHT22;18502;43.574;1.276;2024-01-15T09:29:44;10.60;99.90
31979;DHT22;18502;43.574;1.276;2024-01-15T09:32:11;10.80;99.90
31979;DHT22;18502;43.574;1.276;2024-01-15T09:34:38;11.00;99.90
31979;DHT22;18502;43.574;1.276;2024-01-15T09:37:04;11.10;99.90
31979;DHT22;18502;43.574;1.276;2024-01-15T09:39:30;11.20;99.90
31979;DHT22;18502;43.574;1.276;2024-01-15T09:41:58;11.50;99.90
31979;DHT22;18502;43.574;1.276;2024-01-15T09:44:24;11.70;99.90
31979;DHT22;18502;43.574;1.276;2024-01-15T09:46:50;11.80;99.90
31979;DHT22;18502;43.574;1.276;2024-01-15T09:49:17;11.70;99.90
31979;DHT22;18502;43.574;1.276;2024-01-15T09:51:43;11.80;99.90
31979;DHT22;18502;43.574;1.276;2024-01-15T09:54:09;11.90;99.90
31979;DHT22;18502;43.574;1.276;2024-01-15T09:56:35;11.30;99.90
31979;DHT22;18502;43.574;1.276;2024-01-15T09:59:02;10.80;99.90
31979;DHT22;18502;43.574;1.276;2024-01-15T10:01:31;10.70;99.90
31979;DHT22;18502;43.574;1.276;2024-01-15T10:03:58;10.90;99.90
31979;DHT22;18502;43.574;1.276;2024-01-15T10:06:26;11.10;99.90
31979;DHT22;18502;43.574;1.276;2024-01-15T10:08:53;11.50;99.90
31979;DHT22;18502;43.574;1.276;2024-01-15T10:11:19;11.40;99.90
31979;DHT22;18502;43.574;1.276;2024-01-15T10:13:45;11.50;99.90
31979;DHT22;18502;43.574;1.276;2024-01-15T10:16:11;11.60;99.90
31979;DHT22;18502;43.574;1.276;2024-01-15T10:18:37;11.30;99.90
31979;DHT22;18502;43.574;1.276;2024-01-15T10:21:06;11.50;99.90
31979;DHT22;18502;43.574;1.276;2024-01-15T10:23:32;11.70;99.90
31979;DHT22;18502;43.574;1.276;2024-01-15T10:25:58;11.70;99.90
31979;DHT22;18502;43.574;1.276;2024-01-15T10:28:26;11.70;99.90
31979;DHT22;18502;43.574;1.276;2024-01-15T10:30:54;11.60;99.90
31979;DHT22;18502;43.574;1.276;2024-01-15T10:33:22;11.50;99.90
31979;DHT22;18502;43.574;1.276;2024-01-15T10:35:58;11.40;99.90
31979;DHT22;18502;43.574;1.276;2024-01-15T10:38:24;11.40;99.90
31979;DHT22;18502;43.574;1.276;2024-01-15T10:40:54;11.30;99.90
31979;DHT22;18502;43.574;1.276;2024-01-15T10:43:21;11.20;99.90
31979;DHT22;18502;43.574;1.276;2024-01-15T10:45:50;11.40;99.90
31979;DHT22;18502;43.574;1.276;2024-01-15T10:48:18;11.60;99.90
31979;DHT22;18502;43.574;1.276;2024-01-15T10:50:45;11.80;99.90
31979;DHT22;18502;43.574;1.276;2024-01-15T10:53:12;11.70;99.90
31979;DHT22;18502;43.574;1.276;2024-01-15T10:55:39;11.90;99.90
31979;DHT22;18502;43.574;1.276;2024-01-15T10:58:07;11.90;99.90
31979;DHT22;18502;43.574;1.276;2024-01-15T11:00:34;12.10;99.90
31979;DHT22;18502;43.574;1.276;2024-01-15T11:03:01;12.20;99.90
31979;DHT22;18502;43.574;1.276;2024-01-15T11:05:27;12.00;99.90
31979;DHT22;18502;43.574;1.276;2024-01-15T11:07:58;11.80;99.90
31979;DHT22;18502;43.574;1.276;2024-01-15T11:10:42;11.60;99.90
31979;DHT22;18502;43.574;1.276;2024-01-15T11:16:11;11.60;99.90
31979;DHT22;18502;43.574;1.276;2024-01-15T11:18:48;11.60;99.90
31979;DHT22;18502;43.574;1.276;2024-01-15T11:21:26;11.60;99.90
31979;DHT22;18502;43.574;1.276;2024-01-15T11:24:00;11.50;99.90
31979;DHT22;18502;43.574;1.276;2024-01-15T11:26:33;11.70;99.90
31979;DHT22;18502;43.574;1.276;2024-01-15T11:34:12;11.70;99.90
31979;DHT22;18502;43.574;1.276;2024-01-15T11:37:01;11.60;99.90
31979;DHT22;18502;43.574;1.276;2024-01-15T11:41:57;11.50;99.90
31979;DHT22;18502;43.574;1.276;2024-01-15T11:44:23;11.50;99.90
31979;DHT22;18502;43.574;1.276;2024-01-15T11:47:02;11.40;99.90
31979;DHT22;18502;43.574;1.276;2024-01-15T11:50:02;11.30;99.90
31979;DHT22;18502;43.574;1.276;2024-01-15T11:52:35;11.40;99.90
31979;DHT22;18502;43.574;1.276;2024-01-15T11:55:23;11.50;99.90
31979;DHT22;18502;43.574;1.276;2024-01-15T11:57:53;11.50;99.90
31979;DHT22;18502;43.574;1.276;2024-01-15T12:00:23;11.40;99.90
31979;DHT22;18502;43.574;1.276;2024-01-15T12:02:49;11.40;99.90
31979;DHT22;18502;43.574;1.276;2024-01-15T12:05:18;11.30;99.90
31979;DHT22;18502;43.574;1.276;2024-01-15T12:07:46;11.30;99.90
31979;DHT22;18502;43.574;1.276;2024-01-15T12:10:17;11.30;99.90
31979;DHT22;18502;43.574;1.276;2024-01-15T12:15:11;11.40;99.90
31979;DHT22;18502;43.574;1.276;2024-01-15T12:17:38;11.40;99.90
31979;DHT22;18502;43.574;1.276;2024-01-15T12:20:04;11.50;99.90
31979;DHT22;18502;43.574;1.276;2024-01-15T12:22:30;11.60;99.90
31979;DHT22;18502;43.574;1.276;2024-01-15T12:24:56;11.70;99.90
31979;DHT22;18502;43.574;1.276;2024-01-15T12:27:23;11.80;99.90
31979;DHT22;18502;43.574;1.276;2024-01-15T12:29:49;12.00;99.90
31979;DHT22;18502;43.574;1.276;2024-01-15T12:32:15;12.20;99.90
31979;DHT22;18502;43.574;1.276;2024-01-15T12:34:40;12.00;99.90
31979;DHT22;18502;43.574;1.276;2024-01-15T12:37:09;11.90;99.90
31979;DHT22;18502;43.574;1.276;2024-01-15T12:39:36;12.00;99.90
31979;DHT22;18502;43.574;1.276;2024-01-15T12:42:02;11.80;99.90
31979;DHT22;18502;43.574;1.276;2024-01-15T12:44:29;11.80;99.90
31979;DHT22;18502;43.574;1.276;2024-01-15T12:46:54;11.70;99.90
31979;DHT22;18502;43.574;1.276;2024-01-15T12:49:21;11.70;99.90
31979;DHT22;18502;43.574;1.276;2024-01-15T12:51:59;11.70;99.90
31979;DHT22;18502;43.574;1.276;2024-01-15T12:54:25;11.60;99.90
31979;DHT22;18502;43.574;1.276;2024-01-15T12:56:51;11.70;99.90
31979;DHT22;18502;43.574;1.276;2024-01-15T12:59:18;11.90;99.90
31979;DHT22;18502;43.574;1.276;2024-01-15T13:01:44;12.10;99.90
31979;DHT22;18502;43.574;1.276;2024-01-15T13:04:10;12.20;99.90
31979;DHT22;18502;43.574;1.276;2024-01-15T13:06:36;12.10;99.90
31979;DHT22;18502;43.574;1.276;2024-01-15T13:09:03;11.90;99.90
31979;DHT22;18502;43.574;1.276;2024-01-15T13:11:31;11.80;99.90
31979;DHT22;18502;43.574;1.276;2024-01-15T13:13:57;11.80;99.90
31979;DHT22;18502;43.574;1.276;2024-01-15T13:16:23;11.90;99.90
31979;DHT22;18502;43.574;1.276;2024-01-15T13:18:48;11.90;99.90
31979;DHT22;18502;43.574;1.276;2024-01-15T13:21:15;11.80;99.90
31979;DHT22;18502;43.574;1.276;2024-01-15T13:23:41;11.70;99.90
31979;DHT22;18502;43.574;1.276;2024-01-15T13:26:06;11.80;99.90
31979;DHT22;18502;43.574;1.276;2024-01-15T13:28:32;11.80;99.90
31979;DHT22;18502;43.574;1.276;2024-01-15T13:30:59;11.90;99.90
31979;DHT22;18502;43.574;1.276;2024-01-15T13:33:25;12.00;99.90
31979;DHT22;18502;43.574;1.276;2024-01-15T13:35:51;11.90;99.90
31979;DHT22;18502;43.574;1.276;2024-01-15T13:38:16;12.00;99.90
31979;DHT22;18502;43.574;1.276;2024-01-15T13:40:42;11.90;99.90
31979;DHT22;18502;43.574;1.276;2024-01-15T13:43:10;11.80;99.90
31979;DHT22;18502;43.574;1.276;2024-01-15T13:45:36;11.80;99.90
31979;DHT22;18502;43.574;1.276;2024-01-15T13:48:03;11.80;99.90
31979;DHT22;18502;43.574;1.276;2024-01-15T13:50:36;11.80;99.90
31979;DHT22;18502;43.574;1.276;2024-01-15T13:53:03;11.70;99.90
31979;DHT22;18502;43.574;1.276;2024-01-15T13:55:31;11.70;99.90
31979;DHT22;18502;43.574;1.276;2024-01-15T13:57:57;11.70;99.90
31979;DHT22;18502;43.574;1.276;2024-01-15T14:00:23;11.70;99.90
31979;DHT22;18502;43.574;1.276;2024-01-15T14:02:48;11.70;99.90
31979;DHT22;18502;43.574;1.276;2024-01-15T14:05:14;11.70;99.90
31979;DHT22;18502;43.574;1.276;2024-01-15T14:07:40;11.70;99.90
31979;DHT22;18502;43.574;1.276;2024-01-15T14:10:07;11.70;99.90
31979;DHT22;18502;43.574;1.276;2024-01-15T14:12:34;11.70;99.90
31979;DHT22;18502;43.574;1.276;2024-01-15T14:15:03;11.60;99.90
31979;DHT22;18502;43.574;1.276;2024-01-15T14:17:29;11.50;99.90
31979;DHT22;18502;43.574;1.276;2024-01-15T14:19:54;11.50;99.90
31979;DHT22;18502;43.574;1.276;2024-01-15T14:22:20;11.50;99.90
31979;DHT22;18502;43.574;1.276;2024-01-15T14:24:46;11.50;99.90
31979;DHT22;18502;43.574;1.276;2024-01-15T14:27:11;11.50;99.90
31979;DHT22;18502;43.574;1.276;2024-01-15T14:29:37;11.50;99.90
31979;DHT22;18502;43.574;1.276;2024-01-15T14:32:03;11.50;99.90
31979;DHT22;18502;43.574;1.276;2024-01-15T14:34:29;11.50;99.90
31979;DHT22;18502;43.574;1.276;2024-01-15T14:36:55;11.50;99.90
31979;DHT22;18502;43.574;1.276;2024-01-15T14:39:22;11.50;99.90
31979;DHT22;18502;43.574;1.276;2024-01-15T14:41:48;11.50;99.90
31979;DHT22;18502;43.574;1.276;2024-01-15T14:44:13;11.50;99.90
31979;DHT22;18502;43.574;1.276;2024-01-15T14:46:40;11.50;99.90
31979;DHT22;18502;43.574;1.276;2024-01-15T14:49:05;11.50;99.90
31979;DHT22;18502;43.574;1.276;2024-01-15T14:51:31;11.60;99.90
31979;DHT22;18502;43.574;1.276;2024-01-15T14:53:57;11.60;99.90
31979;DHT22;18502;43.574;1.276;2024-01-15T14:56:23;11.60;99.90
31979;DHT22;18502;43.574;1.276;2024-01-15T14:58:49;11.60;99.90
31979;DHT22;18502;43.574;1.276;2024-01-15T15:01:15;11.60;99.90
31979;DHT22;18502;43.574;1.276;2024-01-15T15:03:41;11.60;99.90
31979;DHT22;18502;43.574;1.276;2024-01-15T15:06:07;11.60;99.90
31979;DHT22;18502;43.574;1.276;2024-01-15T15:08:33;11.60;99.90
31979;DHT22;18502;43.574;1.276;2024-01-15T15:11:00;11.60;99.90
31979;DHT22;18502;43.574;1.276;2024-01-15T15:13:26;11.60;99.90
31979;DHT22;18502;43.574;1.276;2024-01-15T15:15:52;11.70;99.90
31979;DHT22;18502;43.574;1.276;2024-01-15T15:18:19;11.70;99.90
31979;DHT22;18502;43.574;1.276;2024-01-15T15:20:45;11.70;99.90
31979;DHT22;18502;43.574;1.276;2024-01-15T15:23:11;11.60;99.90
31979;DHT22;18502;43.574;1.276;2024-01-15T15:25:37;11.70;99.90
31979;DHT22;18502;43.574;1.276;2024-01-15T15:28:03;11.70;99.90
31979;DHT22;18502;43.574;1.276;2024-01-15T15:30:31;11.70;99.90
31979;DHT22;18502;43.574;1.276;2024-01-15T15:32:57;11.70;99.90
31979;DHT22;18502;43.574;1.276;2024-01-15T15:35:23;11.70;99.90
31979;DHT22;18502;43.574;1.276;2024-01-15T15:37:48;11.60;99.90
31979;DHT22;18502;43.574;1.276;2024-01-15T15:40:14;11.60;99.90
31979;DHT22;18502;43.574;1.276;2024-01-15T15:42:39;11.50;99.90
31979;DHT22;18502;43.574;1.276;2024-01-15T15:45:05;11.60;99.90
31979;DHT22;18502;43.574;1.276;2024-01-15T15:47:31;11.50;99.90